EGXC

RAF Coningsby Airport

Coningsby, United Kingdom
METAR EGXC 181550Z 05006KT 9999 FEW036 13/05 Q1027 BLU NOSIG
Observed Flight Rules
Oct-18 @ 15:50 UTC (an hour ago) Visual Flight Rules
Wind Visibility Clouds
50° at 6 knots 10,000+ meters
  • Few at 3,600' AGL
Temperatures Readings
Current 13°C / 55°F
Dewpoint 5°C / 41°F
Humidity 59%
Altimeter 30.32" Hg
Pressure 1027 hPa
Elevation 7
METAR EGXC 181550Z 05006KT 9999 FEW036 13/05 Q1027 BLU NOSIG
Observed Flight Rules
Oct-18 @ 15:50 UTC
(an hour ago)
VFR
Wind Visibility
50° at 6 knots 10,000+ meters
Clouds
  • Few at 3,600' AGL
Temperature Dewpoint
13°C / 55°F 5°C / 41°F
Humidity Altimeter Pressure
59% 30.32" Hg 1027 hPa